sensor_id;sensor_type;location;lat;lon;timestamp;pressure;altitude;pressure_sealevel;temperature;humidity
66588;BME280;53446;50.076;8.198;2024-01-25T00:01:29;100645.06;;;8.84;100.00
66588;BME280;53446;50.076;8.198;2024-01-25T00:03:30;100642.44;;;8.82;100.00
66588;BME280;53446;50.076;8.198;2024-01-25T00:05:31;100630.78;;;8.82;100.00
66588;BME280;53446;50.076;8.198;2024-01-25T00:07:31;100627.34;;;8.78;100.00
66588;BME280;53446;50.076;8.198;2024-01-25T00:09:31;100635.59;;;8.75;100.00
66588;BME280;53446;50.076;8.198;2024-01-25T00:11:32;100625.78;;;8.74;100.00
66588;BME280;53446;50.076;8.198;2024-01-25T00:13:34;100623.06;;;8.74;100.00
66588;BME280;53446;50.076;8.198;2024-01-25T00:15:34;100618.94;;;8.67;100.00
66588;BME280;53446;50.076;8.198;2024-01-25T00:17:34;100617.41;;;8.61;100.00
66588;BME280;53446;50.076;8.198;2024-01-25T00:19:35;100615.78;;;8.57;100.00
66588;BME280;53446;50.076;8.198;2024-01-25T00:21:41;100616.81;;;8.55;100.00
66588;BME280;53446;50.076;8.198;2024-01-25T00:23:44;100628.50;;;8.55;100.00
66588;BME280;53446;50.076;8.198;2024-01-25T00:25:45;100624.91;;;8.55;100.00
66588;BME280;53446;50.076;8.198;2024-01-25T00:27:45;100633.31;;;8.48;100.00
66588;BME280;53446;50.076;8.198;2024-01-25T00:29:47;100622.53;;;8.48;100.00
66588;BME280;53446;50.076;8.198;2024-01-25T00:31:48;100629.81;;;8.46;100.00
66588;BME280;53446;50.076;8.198;2024-01-25T00:33:48;100629.75;;;8.48;100.00
66588;BME280;53446;50.076;8.198;2024-01-25T00:35:49;100629.97;;;8.43;100.00
66588;BME280;53446;50.076;8.198;2024-01-25T00:37:49;100625.50;;;8.42;100.00
66588;BME280;53446;50.076;8.198;2024-01-25T00:39:50;100624.69;;;8.40;100.00
66588;BME280;53446;50.076;8.198;2024-01-25T00:41:51;100631.06;;;8.38;100.00
66588;BME280;53446;50.076;8.198;2024-01-25T00:43:52;100631.16;;;8.36;100.00
66588;BME280;53446;50.076;8.198;2024-01-25T00:45:53;100628.59;;;8.33;100.00
66588;BME280;53446;50.076;8.198;2024-01-25T00:47:53;100625.25;;;8.28;100.00
66588;BME280;53446;50.076;8.198;2024-01-25T00:49:54;100631.50;;;8.28;100.00
66588;BME280;53446;50.076;8.198;2024-01-25T00:51:58;100630.78;;;8.25;100.00
66588;BME280;53446;50.076;8.198;2024-01-25T00:54:00;100628.31;;;8.20;100.00
66588;BME280;53446;50.076;8.198;2024-01-25T00:56:00;100629.34;;;8.18;100.00
66588;BME280;53446;50.076;8.198;2024-01-25T00:58:01;100627.44;;;8.20;100.00
66588;BME280;53446;50.076;8.198;2024-01-25T01:00:02;100629.03;;;8.24;100.00
66588;BME280;53446;50.076;8.198;2024-01-25T01:02:04;100627.13;;;8.26;100.00
66588;BME280;53446;50.076;8.198;2024-01-25T01:04:06;100636.03;;;8.28;100.00
66588;BME280;53446;50.076;8.198;2024-01-25T01:06:07;100637.75;;;8.29;100.00
66588;BME280;53446;50.076;8.198;2024-01-25T01:08:08;100638.72;;;8.28;100.00
66588;BME280;53446;50.076;8.198;2024-01-25T01:10:09;100641.41;;;8.28;100.00
66588;BME280;53446;50.076;8.198;2024-01-25T01:12:09;100632.53;;;8.26;100.00
66588;BME280;53446;50.076;8.198;2024-01-25T01:14:09;100649.72;;;8.23;100.00
66588;BME280;53446;50.076;8.198;2024-01-25T01:16:10;100652.63;;;8.19;100.00
66588;BME280;53446;50.076;8.198;2024-01-25T01:18:10;100649.94;;;8.19;100.00
66588;BME280;53446;50.076;8.198;2024-01-25T01:20:10;100653.50;;;8.19;100.00
66588;BME280;53446;50.076;8.198;2024-01-25T01:22:11;100668.72;;;8.20;100.00
66588;BME280;53446;50.076;8.198;2024-01-25T01:24:11;100664.25;;;8.19;100.00
66588;BME280;53446;50.076;8.198;2024-01-25T01:26:11;100658.00;;;8.19;100.00
66588;BME280;53446;50.076;8.198;2024-01-25T01:28:12;100659.69;;;8.21;100.00
66588;BME280;53446;50.076;8.198;2024-01-25T01:30:12;100659.63;;;8.23;100.00
66588;BME280;53446;50.076;8.198;2024-01-25T01:32:12;100666.91;;;8.21;100.00
66588;BME280;53446;50.076;8.198;2024-01-25T01:34:13;100658.97;;;8.18;100.00
66588;BME280;53446;50.076;8.198;2024-01-25T01:36:14;100662.81;;;8.12;100.00
66588;BME280;53446;50.076;8.198;2024-01-25T01:38:14;100662.09;;;8.09;100.00
66588;BME280;53446;50.076;8.198;2024-01-25T01:40:14;100663.97;;;8.06;100.00
66588;BME280;53446;50.076;8.198;2024-01-25T01:42:15;100669.34;;;8.06;100.00
66588;BME280;53446;50.076;8.198;2024-01-25T01:44:15;100662.25;;;8.05;100.00
66588;BME280;53446;50.076;8.198;2024-01-25T01:46:35;100659.66;;;8.02;100.00
66588;BME280;53446;50.076;8.198;2024-01-25T01:48:39;100668.69;;;8.01;100.00
66588;BME280;53446;50.076;8.198;2024-01-25T01:50:39;100673.28;;;7.99;100.00
66588;BME280;53446;50.076;8.198;2024-01-25T01:52:39;100673.88;;;8.06;100.00
66588;BME280;53446;50.076;8.198;2024-01-25T01:54:40;100664.63;;;8.12;100.00
66588;BME280;53446;50.076;8.198;2024-01-25T01:56:40;100661.72;;;8.16;100.00
66588;BME280;53446;50.076;8.198;2024-01-25T01:58:41;100659.84;;;8.18;100.00
66588;BME280;53446;50.076;8.198;2024-01-25T02:00:42;100676.06;;;8.17;100.00
66588;BME280;53446;50.076;8.198;2024-01-25T02:02:42;100673.38;;;8.17;100.00
66588;BME280;53446;50.076;8.198;2024-01-25T02:04:43;100677.09;;;8.14;100.00
66588;BME280;53446;50.076;8.198;2024-01-25T02:06:44;100683.06;;;8.21;100.00
66588;BME280;53446;50.076;8.198;2024-01-25T02:08:49;100677.47;;;8.25;100.00
66588;BME280;53446;50.076;8.198;2024-01-25T02:10:50;100663.78;;;8.30;100.00
66588;BME280;53446;50.076;8.198;2024-01-25T02:12:51;100666.47;;;8.30;100.00
66588;BME280;53446;50.076;8.198;2024-01-25T02:14:51;100663.56;;;8.35;100.00
66588;BME280;53446;50.076;8.198;2024-01-25T02:16:51;100659.19;;;8.32;100.00
66588;BME280;53446;50.076;8.198;2024-01-25T02:18:51;100661.09;;;8.30;100.00
66588;BME280;53446;50.076;8.198;2024-01-25T02:20:54;100660.94;;;8.33;100.00
66588;BME280;53446;50.076;8.198;2024-01-25T02:22:54;100673.59;;;8.31;100.00
66588;BME280;53446;50.076;8.198;2024-01-25T02:24:54;100667.41;;;8.29;100.00
66588;BME280;53446;50.076;8.198;2024-01-25T02:26:55;100671.88;;;8.30;100.00
66588;BME280;53446;50.076;8.198;2024-01-25T02:28:55;100663.56;;;8.35;100.00
66588;BME280;53446;50.076;8.198;2024-01-25T02:30:56;100671.50;;;8.38;100.00
66588;BME280;53446;50.076;8.198;2024-01-25T02:32:56;100677.75;;;8.38;100.00
66588;BME280;53446;50.076;8.198;2024-01-25T02:34:56;100681.34;;;8.39;100.00
66588;BME280;53446;50.076;8.198;2024-01-25T02:36:56;100667.94;;;8.37;100.00
66588;BME280;53446;50.076;8.198;2024-01-25T02:38:57;100667.75;;;8.42;100.00
66588;BME280;53446;50.076;8.198;2024-01-25T02:40:57;100675.84;;;8.42;100.00
66588;BME280;53446;50.076;8.198;2024-01-25T02:42:57;100667.53;;;8.46;100.00
66588;BME280;53446;50.076;8.198;2024-01-25T02:44:57;100666.56;;;8.47;100.00
66588;BME280;53446;50.076;8.198;2024-01-25T02:46:58;100660.25;;;8.48;100.00
66588;BME280;53446;50.076;8.198;2024-01-25T02:48:58;100662.00;;;8.50;100.00
66588;BME280;53446;50.076;8.198;2024-01-25T02:50:58;100663.75;;;8.51;100.00
66588;BME280;53446;50.076;8.198;2024-01-25T02:52:59;100678.31;;;8.46;100.00
66588;BME280;53446;50.076;8.198;2024-01-25T02:54:59;100664.19;;;8.41;100.00
66588;BME280;53446;50.076;8.198;2024-01-25T02:56:59;100665.06;;;8.42;100.00
66588;BME280;53446;50.076;8.198;2024-01-25T02:59:00;100671.31;;;8.42;100.00
66588;BME280;53446;50.076;8.198;2024-01-25T03:01:00;100671.31;;;8.42;100.00
66588;BME280;53446;50.076;8.198;2024-01-25T03:03:00;100661.28;;;8.46;100.00
66588;BME280;53446;50.076;8.198;2024-01-25T03:05:01;100674.53;;;8.51;100.00
66588;BME280;53446;50.076;8.198;2024-01-25T03:07:01;100666.34;;;8.52;100.00
66588;BME280;53446;50.076;8.198;2024-01-25T03:09:02;100664.31;;;8.57;100.00
66588;BME280;53446;50.076;8.198;2024-01-25T03:11:05;100665.06;;;8.61;100.00
66588;BME280;53446;50.076;8.198;2024-01-25T03:13:05;100673.09;;;8.62;100.00
66588;BME280;53446;50.076;8.198;2024-01-25T03:15:06;100668.47;;;8.64;100.00
66588;BME280;53446;50.076;8.198;2024-01-25T03:17:07;100670.00;;;8.70;100.00
66588;BME280;53446;50.076;8.198;2024-01-25T03:19:07;100673.50;;;8.72;100.00
66588;BME280;53446;50.076;8.198;2024-01-25T03:21:07;100677.78;;;8.76;100.00
66588;BME280;53446;50.076;8.198;2024-01-25T03:23:07;100679.38;;;8.80;100.00
66588;BME280;53446;50.076;8.198;2024-01-25T03:25:08;100677.50;;;8.82;100.00
66588;BME280;53446;50.076;8.198;2024-01-25T03:27:09;100670.22;;;8.84;100.00
66588;BME280;53446;50.076;8.198;2024-01-25T03:29:14;100685.31;;;8.88;100.00
66588;BME280;53446;50.076;8.198;2024-01-25T03:31:14;100683.63;;;8.86;100.00
66588;BME280;53446;50.076;8.198;2024-01-25T03:33:15;100680.78;;;8.89;100.00
66588;BME280;53446;50.076;8.198;2024-01-25T03:35:15;100684.13;;;8.94;100.00
66588;BME280;53446;50.076;8.198;2024-01-25T03:37:15;100684.06;;;8.96;100.00
66588;BME280;53446;50.076;8.198;2024-01-25T03:39:15;100686.66;;;8.97;100.00
66588;BME280;53446;50.076;8.198;2024-01-25T03:41:17;100701.81;;;9.00;100.00
66588;BME280;53446;50.076;8.198;2024-01-25T03:43:17;100703.56;;;9.01;100.00
66588;BME280;53446;50.076;8.198;2024-01-25T03:45:18;100695.47;;;9.01;100.00
66588;BME280;53446;50.076;8.198;2024-01-25T03:47:18;100690.91;;;9.03;100.00
66588;BME280;53446;50.076;8.198;2024-01-25T03:49:18;100706.84;;;9.07;100.00
66588;BME280;53446;50.076;8.198;2024-01-25T03:51:19;100714.16;;;9.05;100.00
66588;BME280;53446;50.076;8.198;2024-01-25T03:53:20;100715.16;;;9.03;100.00
66588;BME280;53446;50.076;8.198;2024-01-25T03:55:20;100711.66;;;9.01;100.00
66588;BME280;53446;50.076;8.198;2024-01-25T03:57:20;100713.56;;;8.99;100.00
66588;BME280;53446;50.076;8.198;2024-01-25T03:59:20;100715.22;;;9.01;100.00
66588;BME280;53446;50.076;8.198;2024-01-25T04:01:21;100709.91;;;9.00;100.00
66588;BME280;53446;50.076;8.198;2024-01-25T04:03:21;100707.53;;;8.94;100.00
66588;BME280;53446;50.076;8.198;2024-01-25T04:05:21;100711.16;;;8.93;100.00
66588;BME280;53446;50.076;8.198;2024-01-25T04:07:22;100711.38;;;8.88;100.00
66588;BME280;53446;50.076;8.198;2024-01-25T04:09:22;100712.63;;;8.81;100.00
66588;BME280;53446;50.076;8.198;2024-01-25T04:11:22;100718.22;;;8.76;100.00
66588;BME280;53446;50.076;8.198;2024-01-25T04:13:23;100707.75;;;8.70;100.00
66588;BME280;53446;50.076;8.198;2024-01-25T04:15:23;100715.19;;;8.65;100.00
66588;BME280;53446;50.076;8.198;2024-01-25T04:17:23;100723.28;;;8.65;100.00
66588;BME280;53446;50.076;8.198;2024-01-25T04:19:23;100729.75;;;8.61;100.00
66588;BME280;53446;50.076;8.198;2024-01-25T04:21:24;100728.16;;;8.57;100.00
66588;BME280;53446;50.076;8.198;2024-01-25T04:23:24;100721.13;;;8.53;100.00
66588;BME280;53446;50.076;8.198;2024-01-25T04:25:25;100720.28;;;8.52;100.00
66588;BME280;53446;50.076;8.198;2024-01-25T04:27:25;100721.44;;;8.46;100.00
66588;BME280;53446;50.076;8.198;2024-01-25T04:29:25;100726.03;;;8.44;100.00
66588;BME280;53446;50.076;8.198;2024-01-25T04:31:25;100723.50;;;8.41;100.00
66588;BME280;53446;50.076;8.198;2024-01-25T04:33:26;100732.63;;;8.37;100.00
66588;BME280;53446;50.076;8.198;2024-01-25T04:35:26;100734.66;;;8.32;100.00
66588;BME280;53446;50.076;8.198;2024-01-25T04:37:27;100734.78;;;8.29;100.00
66588;BME280;53446;50.076;8.198;2024-01-25T04:39:27;100734.00;;;8.27;100.00
66588;BME280;53446;50.076;8.198;2024-01-25T04:41:27;100734.91;;;8.26;100.00
66588;BME280;53446;50.076;8.198;2024-01-25T04:43:27;100734.91;;;8.26;100.00
66588;BME280;53446;50.076;8.198;2024-01-25T04:45:28;100741.31;;;8.23;100.00
66588;BME280;53446;50.076;8.198;2024-01-25T04:47:28;100739.66;;;8.21;100.00
66588;BME280;53446;50.076;8.198;2024-01-25T04:49:28;100734.47;;;8.16;100.00
66588;BME280;53446;50.076;8.198;2024-01-25T04:51:28;100748.13;;;8.12;100.00
66588;BME280;53446;50.076;8.198;2024-01-25T04:53:29;100749.31;;;8.06;100.00
66588;BME280;53446;50.076;8.198;2024-01-25T04:55:29;100752.09;;;8.03;100.00
66588;BME280;53446;50.076;8.198;2024-01-25T04:57:29;100761.19;;;8.00;100.00
66588;BME280;53446;50.076;8.198;2024-01-25T04:59:29;100755.81;;;8.00;100.00
66588;BME280;53446;50.076;8.198;2024-01-25T05:01:30;100764.78;;;8.01;100.00
66588;BME280;53446;50.076;8.198;2024-01-25T05:03:30;100765.66;;;8.01;100.00
66588;BME280;53446;50.076;8.198;2024-01-25T05:05:30;100779.03;;;8.03;100.00
66588;BME280;53446;50.076;8.198;2024-01-25T05:07:31;100788.03;;;8.03;100.00
66588;BME280;53446;50.076;8.198;2024-01-25T05:09:31;100791.53;;;8.05;100.00
66588;BME280;53446;50.076;8.198;2024-01-25T05:11:32;100798.50;;;8.10;100.00
66588;BME280;53446;50.076;8.198;2024-01-25T05:13:32;100794.75;;;8.14;100.00
66588;BME280;53446;50.076;8.198;2024-01-25T05:15:32;100807.22;;;8.16;100.00
66588;BME280;53446;50.076;8.198;2024-01-25T05:17:33;100805.38;;;8.17;100.00
66588;BME280;53446;50.076;8.198;2024-01-25T05:19:33;100819.66;;;8.19;100.00
66588;BME280;53446;50.076;8.198;2024-01-25T05:21:33;100816.91;;;8.20;100.00
66588;BME280;53446;50.076;8.198;2024-01-25T05:23:34;100819.53;;;8.22;100.00
66588;BME280;53446;50.076;8.198;2024-01-25T05:25:34;100827.69;;;8.20;100.00
66588;BME280;53446;50.076;8.198;2024-01-25T05:27:34;100821.44;;;8.20;100.00
66588;BME280;53446;50.076;8.198;2024-01-25T05:29:35;100825.88;;;8.21;100.00
66588;BME280;53446;50.076;8.198;2024-01-25T05:31:35;100827.69;;;8.20;100.00
66588;BME280;53446;50.076;8.198;2024-01-25T05:33:35;100828.56;;;8.21;100.00
66588;BME280;53446;50.076;8.198;2024-01-25T05:35:35;100825.88;;;8.21;100.00
66588;BME280;53446;50.076;8.198;2024-01-25T05:37:36;100821.53;;;8.17;100.00
66588;BME280;53446;50.076;8.198;2024-01-25T05:39:36;100818.78;;;8.18;100.00
66588;BME280;53446;50.076;8.198;2024-01-25T05:41:36;100821.53;;;8.17;100.00
66588;BME280;53446;50.076;8.198;2024-01-25T05:43:37;100818.84;;;8.17;100.00
66588;BME280;53446;50.076;8.198;2024-01-25T05:45:37;100817.06;;;8.17;100.00
66588;BME280;53446;50.076;8.198;2024-01-25T05:47:37;100809.84;;;8.18;100.00
66588;BME280;53446;50.076;8.198;2024-01-25T05:49:38;100817.97;;;8.16;100.00
66588;BME280;53446;50.076;8.198;2024-01-25T05:51:38;100814.56;;;8.13;100.00
66588;BME280;53446;50.076;8.198;2024-01-25T05:53:38;100813.66;;;8.12;100.00
66588;BME280;53446;50.076;8.198;2024-01-25T05:55:38;100819.25;;;8.07;100.00
66588;BME280;53446;50.076;8.198;2024-01-25T05:57:39;100815.78;;;8.05;100.00
66588;BME280;53446;50.076;8.198;2024-01-25T05:59:39;100818.66;;;8.01;100.00
66588;BME280;53446;50.076;8.198;2024-01-25T06:01:39;100816.06;;;7.98;100.00
66588;BME280;53446;50.076;8.198;2024-01-25T06:03:40;100822.34;;;7.98;100.00
66588;BME280;53446;50.076;8.198;2024-01-25T06:05:40;100818.88;;;7.96;100.00
66588;BME280;53446;50.076;8.198;2024-01-25T06:07:40;100817.09;;;7.95;100.00
66588;BME280;53446;50.076;8.198;2024-01-25T06:09:41;100821.81;;;7.90;100.00
66588;BME280;53446;50.076;8.198;2024-01-25T06:11:41;100828.25;;;7.86;100.00
66588;BME280;53446;50.076;8.198;2024-01-25T06:13:41;100834.59;;;7.85;100.00
66588;BME280;53446;50.076;8.198;2024-01-25T06:15:42;100830.28;;;7.81;100.00
66588;BME280;53446;50.076;8.198;2024-01-25T06:17:42;100825.94;;;7.77;100.00
66588;BME280;53446;50.076;8.198;2024-01-25T06:19:43;100828.78;;;7.74;100.00
66588;BME280;53446;50.076;8.198;2024-01-25T06:21:43;100824.41;;;7.71;100.00
66588;BME280;53446;50.076;8.198;2024-01-25T06:23:43;100816.50;;;7.67;100.00
66588;BME280;53446;50.076;8.198;2024-01-25T06:25:43;100814.06;;;7.60;100.00
66588;BME280;53446;50.076;8.198;2024-01-25T06:27:44;100825.09;;;7.54;100.00
66588;BME280;53446;50.076;8.198;2024-01-25T06:29:44;100830.72;;;7.48;100.00
66588;BME280;53446;50.076;8.198;2024-01-25T06:31:45;100832.69;;;7.45;100.00
66588;BME280;53446;50.076;8.198;2024-01-25T06:33:45;100832.88;;;7.40;100.00
66588;BME280;53446;50.076;8.198;2024-01-25T06:35:50;100832.19;;;7.35;100.00
66588;BME280;53446;50.076;8.198;2024-01-25T06:37:50;100834.88;;;7.35;100.00
66588;BME280;53446;50.076;8.198;2024-01-25T06:39:50;100834.03;;;7.33;100.00
66588;BME280;53446;50.076;8.198;2024-01-25T06:41:50;100835.91;;;7.31;100.00
66588;BME280;53446;50.076;8.198;2024-01-25T06:43:51;100825.28;;;7.28;100.00
66588;BME280;53446;50.076;8.198;2024-01-25T06:45:51;100831.59;;;7.27;100.00
66588;BME280;53446;50.076;8.198;2024-01-25T06:47:51;100834.41;;;7.24;100.00
66588;BME280;53446;50.076;8.198;2024-01-25T06:49:52;100838.97;;;7.21;100.00
66588;BME280;53446;50.076;8.198;2024-01-25T06:51:52;100835.41;;;7.21;100.00
66588;BME280;53446;50.076;8.198;2024-01-25T06:53:52;100827.53;;;7.16;100.00
66588;BME280;53446;50.076;8.198;2024-01-25T06:55:52;100835.63;;;7.15;100.00
66588;BME280;53446;50.076;8.198;2024-01-25T06:57:53;100828.56;;;7.12;100.00
66588;BME280;53446;50.076;8.198;2024-01-25T06:59:53;100832.25;;;7.10;100.00
66588;BME280;53446;50.076;8.198;2024-01-25T07:01:53;100836.00;;;7.06;100.00
66588;BME280;53446;50.076;8.198;2024-01-25T07:03:54;100840.63;;;7.02;100.00
66588;BME280;53446;50.076;8.198;2024-01-25T07:05:54;100844.25;;;7.01;100.00
66588;BME280;53446;50.076;8.198;2024-01-25T07:07:54;100853.38;;;6.97;100.00
66588;BME280;53446;50.076;8.198;2024-01-25T07:09:55;100854.34;;;6.94;100.00
66588;BME280;53446;50.076;8.198;2024-01-25T07:11:55;100858.13;;;6.90;100.00
66588;BME280;53446;50.076;8.198;2024-01-25T07:13:55;100858.22;;;6.87;100.00
66588;BME280;53446;50.076;8.198;2024-01-25T07:15:56;100865.56;;;6.82;100.00
66588;BME280;53446;50.076;8.198;2024-01-25T07:17:56;100859.38;;;6.80;100.00
66588;BME280;53446;50.076;8.198;2024-01-25T07:19:56;100854.94;;;6.79;100.00
66588;BME280;53446;50.076;8.198;2024-01-25T07:21:56;100862.13;;;6.78;100.00
66588;BME280;53446;50.076;8.198;2024-01-25T07:23:57;100861.97;;;6.83;100.00
66588;BME280;53446;50.076;8.198;2024-01-25T07:25:57;100863.66;;;6.86;100.00
66588;BME280;53446;50.076;8.198;2024-01-25T07:27:58;100859.97;;;6.88;100.00
66588;BME280;53446;50.076;8.198;2024-01-25T07:29:58;100855.34;;;6.92;100.00
66588;BME280;53446;50.076;8.198;2024-01-25T07:31:58;100864.25;;;6.94;100.00
66588;BME280;53446;50.076;8.198;2024-01-25T07:33:58;100862.38;;;6.96;100.00
66588;BME280;53446;50.076;8.198;2024-01-25T07:35:59;100864.00;;;7.00;100.00
66588;BME280;53446;50.076;8.198;2024-01-25T07:37:59;100868.41;;;7.03;100.00
66588;BME280;53446;50.076;8.198;2024-01-25T07:39:59;100873.72;;;7.04;100.00
66588;BME280;53446;50.076;8.198;2024-01-25T07:41:59;100856.69;;;7.04;100.00
66588;BME280;53446;50.076;8.198;2024-01-25T07:44:00;100870.09;;;7.05;100.00
66588;BME280;53446;50.076;8.198;2024-01-25T07:46:00;100871.78;;;7.08;100.00
66588;BME280;53446;50.076;8.198;2024-01-25T07:48:00;100866.28;;;7.11;100.00
66588;BME280;53446;50.076;8.198;2024-01-25T07:50:00;100856.28;;;7.14;100.00
66588;BME280;53446;50.076;8.198;2024-01-25T07:52:01;100856.16;;;7.17;100.00
66588;BME280;53446;50.076;8.198;2024-01-25T07:54:01;100856.97;;;7.19;100.00
66588;BME280;53446;50.076;8.198;2024-01-25T07:56:02;100846.03;;;7.24;100.00
66588;BME280;53446;50.076;8.198;2024-01-25T07:58:03;100846.81;;;7.28;100.00
66588;BME280;53446;50.076;8.198;2024-01-25T08:00:03;100839.44;;;7.33;100.00
66588;BME280;53446;50.076;8.198;2024-01-25T08:02:04;100848.19;;;7.38;100.00
66588;BME280;53446;50.076;8.198;2024-01-25T08:04:05;100847.97;;;7.44;100.00
66588;BME280;53446;50.076;8.198;2024-01-25T08:06:05;100851.34;;;7.49;100.00
66588;BME280;53446;50.076;8.198;2024-01-25T08:08:06;100857.31;;;7.56;100.00
66588;BME280;53446;50.076;8.198;2024-01-25T08:10:06;100863.34;;;7.62;100.00
66588;BME280;53446;50.076;8.198;2024-01-25T08:12:07;100860.41;;;7.69;100.00
66588;BME280;53446;50.076;8.198;2024-01-25T08:14:07;100862.97;;;7.72;100.00
66588;BME280;53446;50.076;8.198;2024-01-25T08:16:11;100870.84;;;7.76;100.00
66588;BME280;53446;50.076;8.198;2024-01-25T08:18:11;100869.75;;;7.82;100.00
66588;BME280;53446;50.076;8.198;2024-01-25T08:20:11;100866.72;;;7.90;100.00
66588;BME280;53446;50.076;8.198;2024-01-25T08:22:15;100873.47;;;8.00;100.00
66588;BME280;53446;50.076;8.198;2024-01-25T08:24:15;100872.94;;;8.12;100.00
66588;BME280;53446;50.076;8.198;2024-01-25T08:26:15;100864.41;;;8.23;100.00
66588;BME280;53446;50.076;8.198;2024-01-25T08:28:16;100864.72;;;8.36;100.00
66588;BME280;53446;50.076;8.198;2024-01-25T08:30:16;100876.16;;;8.42;100.00
66588;BME280;53446;50.076;8.198;2024-01-25T08:32:16;100866.84;;;8.50;100.00
66588;BME280;53446;50.076;8.198;2024-01-25T08:34:16;100874.69;;;8.56;100.00
66588;BME280;53446;50.076;8.198;2024-01-25T08:36:17;100875.16;;;8.65;100.00
66588;BME280;53446;50.076;8.198;2024-01-25T08:38:18;100883.69;;;8.75;100.00
66588;BME280;53446;50.076;8.198;2024-01-25T08:40:19;100882.25;;;8.87;100.00
66588;BME280;53446;50.076;8.198;2024-01-25T08:42:19;100882.88;;;8.94;100.00
66588;BME280;53446;50.076;8.198;2024-01-25T08:44:20;100880.66;;;9.02;100.00
66588;BME280;53446;50.076;8.198;2024-01-25T08:46:21;100887.41;;;9.12;100.00
66588;BME280;53446;50.076;8.198;2024-01-25T08:48:21;100879.81;;;9.20;100.00
66588;BME280;53446;50.076;8.198;2024-01-25T08:50:21;100883.06;;;9.28;100.00
66588;BME280;53446;50.076;8.198;2024-01-25T08:52:21;100884.34;;;9.39;100.00
66588;BME280;53446;50.076;8.198;2024-01-25T08:54:22;100888.78;;;9.40;100.00
66588;BME280;53446;50.076;8.198;2024-01-25T08:56:22;100891.38;;;9.43;100.00
66588;BME280;53446;50.076;8.198;2024-01-25T08:58:22;100880.34;;;9.47;100.00
66588;BME280;53446;50.076;8.198;2024-01-25T09:00:22;100891.84;;;9.51;100.00
66588;BME280;53446;50.076;8.198;2024-01-25T09:02:23;100890.03;;;9.51;100.00
66588;BME280;53446;50.076;8.198;2024-01-25T09:04:26;100885.22;;;9.58;100.00
66588;BME280;53446;50.076;8.198;2024-01-25T09:06:26;100878.06;;;9.57;100.00
66588;BME280;53446;50.076;8.198;2024-01-25T09:08:27;100887.84;;;9.60;100.00
66588;BME280;53446;50.076;8.198;2024-01-25T09:10:27;100890.09;;;9.69;100.00
66588;BME280;53446;50.076;8.198;2024-01-25T09:12:27;100884.16;;;9.80;100.00
66588;BME280;53446;50.076;8.198;2024-01-25T09:14:27;100883.53;;;9.92;100.00
66588;BME280;53446;50.076;8.198;2024-01-25T09:16:28;100876.50;;;10.07;100.00
66588;BME280;53446;50.076;8.198;2024-01-25T09:18:28;100875.81;;;10.21;100.00
66588;BME280;53446;50.076;8.198;2024-01-25T09:20:29;100876.06;;;10.33;100.00
66588;BME280;53446;50.076;8.198;2024-01-25T09:22:29;100869.44;;;10.22;100.00
66588;BME280;53446;50.076;8.198;2024-01-25T09:24:32;100878.66;;;10.17;100.00
66588;BME280;53446;50.076;8.198;2024-01-25T09:26:36;100879.28;;;10.05;100.00
66588;BME280;53446;50.076;8.198;2024-01-25T09:28:36;100878.81;;;9.97;100.00
66588;BME280;53446;50.076;8.198;2024-01-25T09:30:36;100886.41;;;9.89;100.00
66588;BME280;53446;50.076;8.198;2024-01-25T09:32:36;100887.38;;;9.88;100.00
66588;BME280;53446;50.076;8.198;2024-01-25T09:34:38;100887.38;;;9.88;100.00
66588;BME280;53446;50.076;8.198;2024-01-25T09:36:38;100889.97;;;9.89;100.00
66588;BME280;53446;50.076;8.198;2024-01-25T09:38:38;100897.44;;;9.84;100.00
66588;BME280;53446;50.076;8.198;2024-01-25T09:40:39;100899.22;;;9.85;100.00
66588;BME280;53446;50.076;8.198;2024-01-25T09:42:39;100892.91;;;9.85;100.00
66588;BME280;53446;50.076;8.198;2024-01-25T09:44:40;100898.75;;;9.94;100.00
66588;BME280;53446;50.076;8.198;2024-01-25T09:46:41;100899.91;;;9.89;100.00
66588;BME280;53446;50.076;8.198;2024-01-25T09:48:42;100898.66;;;9.96;100.00
66588;BME280;53446;50.076;8.198;2024-01-25T09:50:48;100881.97;;;9.88;100.00
66588;BME280;53446;50.076;8.198;2024-01-25T09:52:57;100887.22;;;9.91;100.00
66588;BME280;53446;50.076;8.198;2024-01-25T09:54:57;100894.78;;;10.02;100.00
66588;BME280;53446;50.076;8.198;2024-01-25T09:56:58;100897.00;;;10.11;100.00
66588;BME280;53446;50.076;8.198;2024-01-25T09:58:59;100895.72;;;10.18;100.00
66588;BME280;53446;50.076;8.198;2024-01-25T10:01:00;100900.78;;;10.26;100.00
66588;BME280;53446;50.076;8.198;2024-01-25T10:03:00;100905.75;;;10.35;100.00
66588;BME280;53446;50.076;8.198;2024-01-25T10:05:00;100910.03;;;10.39;100.00
66588;BME280;53446;50.076;8.198;2024-01-25T10:07:02;100913.06;;;10.50;100.00
66588;BME280;53446;50.076;8.198;2024-01-25T10:09:04;100908.59;;;10.67;100.00
66588;BME280;53446;50.076;8.198;2024-01-25T10:11:05;100911.44;;;10.81;100.00
66588;BME280;53446;50.076;8.198;2024-01-25T10:13:05;100909.66;;;10.97;100.00
66588;BME280;53446;50.076;8.198;2024-01-25T10:15:06;100906.13;;;11.13;100.00
66588;BME280;53446;50.076;8.198;2024-01-25T10:17:06;100895.47;;;11.10;100.00
66588;BME280;53446;50.076;8.198;2024-01-25T10:19:07;100894.16;;;11.17;100.00
66588;BME280;53446;50.076;8.198;2024-01-25T10:21:11;100898.63;;;11.18;100.00
66588;BME280;53446;50.076;8.198;2024-01-25T10:23:11;100894.00;;;11.20;100.00
66588;BME280;53446;50.076;8.198;2024-01-25T10:25:13;100903.53;;;11.27;100.00
66588;BME280;53446;50.076;8.198;2024-01-25T10:27:14;100902.00;;;11.39;100.00
66588;BME280;53446;50.076;8.198;2024-01-25T10:29:16;100913.88;;;11.52;100.00
66588;BME280;53446;50.076;8.198;2024-01-25T10:31:16;100913.69;;;11.71;100.00